KSUN/SUN METAR and TAF weather

Enter ICAO airport designator
Station Type Date Time Source
KSUN METAR 2019/06/19 06:35 UTC NOAA

KSUN 190635Z AUTO 32008KT 10SM CLR 16/06 A3005 RMK AO2


Station Type Date Time Source
KSUN Decoded METAR 2019/06/19 06:35 UTC NOAA

Hailey, Friedman Memorial Airport, ID, United States (KSUN) 43-30N 114-18W
Jun 19, 2019 - 02:35 AM EDT / 2019.06.19 0635 UTC
Wind: from the NW (320 degrees) at 9 MPH (8 KT):0
Visibility: 10 mile(s):0
Sky conditions: clear
Temperature: 60 F (16 C)
Dew Point: 42 F (6 C)
Relative Humidity: 51%
Pressure (altimeter): 30.05 in. Hg (1017 hPa)
ob: KSUN 190635Z AUTO 32008KT 10SM CLR 16/06 A3005 RMK AO2
cycle: 6

Station Type Date Time Source
KSUN TAF 2019/06/19 06:22 UTC NOAA

TAF KSUN 190520Z 1906/2012 31006KT P6SM FEW200
FM191600 VRB04KT P6SM FEW200
FM191800 29015KT P6SM SKC
FM192100 29020G30KT P6SM SKC
FM200300 31010KT P6SM SKC
AMD LTD TO CLD VIS AND WIND TIL 191300

Example: see airport list